Terminal Aerodrome Forecast
Issued by NWS

Home | Current Version | Previous Version | Text Only | Print | Product List | Glossary On
Versions: 1 2 3 4 5 6 7 8 9 10 11 12 13 14 15 16 17 18 19 20 21
040
FTUS43 KJKL 122337
TAFSME
TAF
KSME 122337Z 1300/1324 29006KT P6SM BKN015
     FM130400 31008KT P6SM BKN035
     FM130900 33006KT P6SM SCT070=

USA.gov is the U.S. government's official web portal to all federal, state and local government web resources and services.